| time (UTC) | temp C | wind direction | speed KPH | gust KPH | rain 1hr cm | rain 24hr cm | rain mn cm | humidity % | barometer mb |
| 20260510142724 | 16 | 223 | 3.2 | 6.4 | 0.00 | 0.99 | 0.00 | 91 | 1011.6 |
| 20260510142224 | 15 | 188 | 3.2 | 6.4 | 0.00 | 0.99 | 0.00 | 88 | 1011.6 |
| 20260510141723 | 15 | 254 | 3.2 | 6.4 | 0.00 | 0.99 | 0.00 | 89 | 1011.5 |
| 20260510141223 | 14 | 279 | 3.2 | 8.0 | 0.00 | 0.99 | 0.00 | 90 | 1011.5 |
| 20260510140724 | 14 | 231 | 4.8 | 8.0 | 0.00 | 0.99 | 0.00 | 89 | 1011.4 |
| 20260510140454 | 14 | 257 | 3.2 | 11.3 | 0.00 | 0.99 | 0.00 | 90 | 1011.5 |
| 20260510135722 | 14 | 244 | 4.8 | 11.3 | 0.00 | 0.99 | 0.00 | 90 | 1011.5 |
| 20260510135221 | 14 | 167 | 4.8 | 11.3 | 0.00 | 0.99 | 0.00 | 91 | 1011.4 |
| 20260510134721 | 13 | 221 | 4.8 | 11.3 | 0.00 | 0.99 | 0.00 | 89 | 1011.4 |
| 20260510134223 | 14 | 184 | 3.2 | 11.3 | 0.00 | 0.99 | 0.00 | 90 | 1011.3 |
| 20260510133950 | 14 | 222 | 4.8 | 11.3 | 0.00 | 0.99 | 0.00 | 91 | 1011.4 |
| 20260510133450 | 14 | 281 | 4.8 | 11.3 | 0.00 | 0.99 | 0.00 | 91 | 1011.4 |
| 20260510132717 | 14 | 208 | 3.2 | 11.3 | 0.00 | 0.99 | 0.00 | 91 | 1011.3 |
| 20260510132217 | 14 | 239 | 3.2 | 9.7 | 0.00 | 0.99 | 0.00 | 92 | 1011.3 |
| 20260510131716 | 14 | 271 | 3.2 | 9.7 | 0.00 | 0.99 | 0.00 | 92 | 1011.4 |
| 20260510131446 | 13 | 281 | 3.2 | 9.7 | 0.00 | 0.99 | 0.00 | 91 | 1011.4 |
| 20260510130715 | 13 | 214 | 1.6 | 4.8 | 0.00 | 0.99 | 0.00 | 93 | 1011.4 |
| 20260510130216 | 13 | 269 | 1.6 | 4.8 | 0.00 | 0.99 | 0.00 | 94 | 1011.4 |
| 20260510125715 | 13 | 277 | 3.2 | 9.7 | 0.00 | 0.99 | 0.00 | 94 | 1011.4 |
| 20260510125215 | 13 | 235 | 1.6 | 9.7 | 0.00 | 0.99 | 0.00 | 94 | 1011.2 |
| 20260510124716 | 13 | 284 | 1.6 | 4.8 | 0.00 | 0.99 | 0.00 | 95 | 1011.1 |
| 20260510124209 | 12 | 227 | 1.6 | 4.8 | 0.00 | 0.99 | 0.00 | 95 | 1010.9 |
| 20260510123934 | 12 | 216 | 1.6 | 4.8 | 0.00 | 0.99 | 0.00 | 95 | 1010.8 |
| 20260510123158 | 12 | 207 | 1.6 | 4.8 | 0.00 | 0.99 | 0.00 | 95 | 1010.7 |
| 20260510122652 | 12 | 164 | 3.2 | 6.4 | 0.00 | 0.99 | 0.00 | 95 | 1010.7 |
| 20260510122145 | 12 | 223 | 1.6 | 6.4 | 0.00 | 0.99 | 0.00 | 96 | 1010.7 |
| 20260510121639 | 11 | 228 | 1.6 | 4.8 | 0.00 | 0.99 | 0.00 | 96 | 1010.7 |
| 20260510121405 | 11 | 239 | 1.6 | 4.8 | 0.00 | 0.99 | 0.00 | 96 | 1010.7 |
| 20260510120627 | 11 | 244 | 1.6 | 3.2 | 0.00 | 0.99 | 0.00 | 96 | 1010.7 |
| 20260510120353 | 10 | 247 | 0.0 | 3.2 | 0.00 | 0.99 | 0.00 | 96 | 1010.7 |
| 20260510115616 | 10 | 164 | 0.0 | 1.6 | 0.00 | 0.99 | 0.00 | 96 | 1010.7 |
| 20260510115110 | 10 | 164 | 0.0 | 1.6 | 0.00 | 0.99 | 0.00 | 96 | 1010.6 |
| 20260510114603 | 10 | 164 | 0.0 | 3.2 | 0.00 | 0.99 | 0.00 | 95 | 1010.4 |
| 20260510114057 | 10 | 164 | 1.6 | 3.2 | 0.00 | 0.99 | 0.00 | 95 | 1010.2 |
| 20260510113551 | 9 | 221 | 0.0 | 3.2 | 0.00 | 0.99 | 0.00 | 95 | 1010.2 |
| 20260510113316 | 9 | 221 | 0.0 | 3.2 | 0.00 | 0.99 | 0.00 | 95 | 1010.4 |
| 20260510112540 | 9 | 221 | 0.0 | 3.2 | 0.00 | 0.99 | 0.00 | 95 | 1010.4 |
| 20260510112034 | 9 | 221 | 0.0 | 1.6 | 0.00 | 0.99 | 0.00 | 95 | 1010.5 |
| 20260510111528 | 9 | 221 | 0.0 | 1.6 | 0.00 | 0.99 | 0.00 | 95 | 1010.5 |
| 20260510111021 | 9 | 221 | 1.6 | 1.6 | 0.00 | 0.99 | 0.00 | 95 | 1010.4 |
| 20260510110516 | 9 | 221 | 1.6 | 3.2 | 0.00 | 0.99 | 0.00 | 95 | 1010.3 |
| 20260510110009 | 9 | 221 | 0.0 | 3.2 | 0.00 | 0.99 | 0.00 | 95 | 1010.3 |
| 20260510105504 | 8 | 177 | 0.0 | 1.6 | 0.00 | 0.99 | 0.00 | 95 | 1010.4 |
| 20260510104958 | 8 | 177 | 0.0 | 3.2 | 0.00 | 0.99 | 0.00 | 95 | 1010.3 |
| 20260510104452 | 8 | 177 | 1.6 | 4.8 | 0.00 | 0.99 | 0.00 | 95 | 1010.2 |
| 20260510103945 | 8 | 177 | 1.6 | 4.8 | 0.00 | 0.99 | 0.00 | 95 | 1010.1 |
| 20260510103440 | 8 | 126 | 1.6 | 4.8 | 0.00 | 0.99 | 0.00 | 95 | 1010.0 |
| 20260510102933 | 8 | 157 | 1.6 | 4.8 | 0.00 | 0.99 | 0.00 | 95 | 1010.1 |
| 20260510102428 | 8 | 141 | 1.6 | 6.4 | 0.00 | 0.99 | 0.00 | 95 | 1010.0 |
| 20260510101921 | 8 | 169 | 1.6 | 6.4 | 0.00 | 0.99 | 0.00 | 95 | 1009.9 |
| 20260510101416 | 8 | 146 | 1.6 | 4.8 | 0.00 | 0.99 | 0.00 | 95 | 1009.9 |
| 20260510100912 | 8 | 157 | 1.6 | 8.0 | 0.00 | 0.99 | 0.00 | 95 | 1009.9 |
| 20260510100907 | 8 | 144 | 1.6 | 8.0 | 0.00 | 0.99 | 0.00 | 95 | 1010.0 |
| 20260510095857 | 8 | 150 | 1.6 | 6.4 | 0.00 | 0.99 | 0.00 | 95 | 1009.9 |
| 20260510095352 | 8 | 80 | 0.0 | 3.2 | 0.00 | 0.99 | 0.00 | 95 | 1009.8 |
| 20260510095118 | 8 | 80 | 1.6 | 3.2 | 0.00 | 0.99 | 0.00 | 95 | 1009.8 |
| 20260510094339 | 8 | 80 | 0.0 | 3.2 | 0.00 | 0.99 | 0.00 | 95 | 1009.9 |
| 20260510093836 | 8 | 80 | 0.0 | 1.6 | 0.00 | 0.99 | 0.00 | 95 | 1010.1 |
| 20260510093831 | 8 | 80 | 0.0 | 3.2 | 0.00 | 0.99 | 0.00 | 95 | 1010.0 |
| 20260510092821 | 8 | 80 | 1.6 | 3.2 | 0.00 | 0.99 | 0.00 | 95 | 1009.9 |
| 20260510092316 | 8 | 80 | 1.6 | 3.2 | 0.00 | 0.99 | 0.00 | 95 | 1010.0 |
| 20260510091810 | 8 | 80 | 1.6 | 3.2 | 0.00 | 0.99 | 0.00 | 95 | 1010.0 |
| 20260510091304 | 8 | 122 | 0.0 | 3.2 | 0.00 | 0.99 | 0.00 | 95 | 1009.9 |
| 20260510090803 | 8 | 348 | 0.0 | 3.2 | 0.00 | 0.99 | 0.00 | 95 | 1009.9 |
| 20260510090301 | 8 | 348 | 1.6 | 3.2 | 0.00 | 0.99 | 0.00 | 95 | 1009.9 |
| 20260510085758 | 8 | 348 | 0.0 | 1.6 | 0.00 | 0.99 | 0.00 | 95 | 1010.0 |
| 20260510085258 | 8 | 348 | 0.0 | 1.6 | 0.00 | 0.99 | 0.00 | 95 | 1010.1 |
| 20260510085029 | 8 | 348 | 0.0 | 3.2 | 0.00 | 0.99 | 0.00 | 95 | 1010.2 |
| 20260510084528 | 8 | 348 | 3.2 | 11.3 | 0.00 | 0.99 | 0.00 | 95 | 1010.3 |
| 20260510083756 | 8 | 347 | 4.8 | 11.3 | 0.00 | 0.99 | 0.00 | 95 | 1010.3 |
| 20260510083255 | 8 | 17 | 4.8 | 11.3 | 0.00 | 0.99 | 0.00 | 95 | 1010.4 |
| 20260510082754 | 8 | 32 | 4.8 | 12.9 | 0.00 | 0.99 | 0.00 | 95 | 1010.4 |
| 20260510082254 | 8 | 344 | 4.8 | 12.9 | 0.00 | 0.99 | 0.00 | 95 | 1010.3 |
| 20260510081756 | 8 | 27 | 6.4 | 19.3 | 0.00 | 0.99 | 0.00 | 95 | 1010.3 |
| 20260510081255 | 8 | 5 | 8.0 | 19.3 | 0.00 | 0.99 | 0.00 | 95 | 1010.4 |
| 20260510080755 | 8 | 342 | 8.0 | 17.7 | 0.00 | 0.99 | 0.00 | 95 | 1010.3 |
| 20260510080251 | 8 | 355 | 6.4 | 14.5 | 0.00 | 0.99 | 0.00 | 95 | 1010.1 |
| 20260510075751 | 8 | 355 | 8.0 | 24.1 | 0.00 | 0.99 | 0.00 | 95 | 1010.1 |
| 20260510075251 | 8 | 5 | 8.0 | 24.1 | 0.00 | 0.99 | 0.00 | 94 | 1009.9 |
| 20260510074750 | 8 | 355 | 1.6 | 14.5 | 0.00 | 0.99 | 0.00 | 94 | 1010.0 |
| 20260510074252 | 8 | 15 | 0.0 | 0.0 | 0.00 | 0.99 | 0.00 | 94 | 1009.4 |
| 20260510073750 | 8 | 15 | 0.0 | 0.0 | 0.00 | 0.99 | 0.00 | 94 | 1009.4 |
| 20260510073251 | 8 | 15 | 0.0 | 1.6 | 0.00 | 0.99 | 0.00 | 94 | 1009.5 |
| 20260510072752 | 8 | 15 | 0.0 | 1.6 | 0.00 | 0.99 | 0.00 | 94 | 1009.4 |
| 20260510072251 | 8 | 15 | 1.6 | 3.2 | 0.00 | 0.99 | 0.00 | 94 | 1009.4 |
| 20260510071751 | 8 | 15 | 1.6 | 4.8 | 0.00 | 0.99 | 0.00 | 94 | 1009.4 |
| 20260510071522 | 8 | 12 | 1.6 | 4.8 | 0.00 | 0.99 | 0.00 | 94 | 1009.4 |
| 20260510070750 | 8 | 339 | 1.6 | 4.8 | 0.00 | 0.99 | 0.00 | 94 | 1009.4 |
| 20260510070251 | 8 | 12 | 1.6 | 4.8 | 0.00 | 0.99 | 0.00 | 94 | 1009.5 |
| 20260510065748 | 8 | 30 | 1.6 | 4.8 | 0.00 | 0.99 | 0.00 | 94 | 1009.5 |
| 20260510065247 | 8 | 341 | 1.6 | 4.8 | 0.00 | 0.99 | 0.00 | 94 | 1009.5 |
| 20260510064746 | 8 | 337 | 3.2 | 4.8 | 0.00 | 0.99 | 0.00 | 94 | 1009.5 |
| 20260510064243 | 8 | 338 | 3.2 | 6.4 | 0.00 | 0.99 | 0.00 | 94 | 1009.7 |
| 20260510063742 | 8 | 346 | 3.2 | 6.4 | 0.00 | 0.99 | 0.00 | 94 | 1009.7 |
| 20260510063243 | 7 | 5 | 3.2 | 6.4 | 0.00 | 0.99 | 0.00 | 94 | 1009.7 |
| 20260510062740 | 7 | 348 | 3.2 | 8.0 | 0.00 | 0.99 | 0.00 | 94 | 1009.8 |
| 20260510062512 | 7 | 340 | 3.2 | 8.0 | 0.00 | 0.99 | 0.00 | 94 | 1009.8 |
| 20260510061741 | 7 | 303 | 1.6 | 4.8 | 0.00 | 0.99 | 0.00 | 94 | 1009.8 |
| 20260510061241 | 7 | 178 | 0.0 | 1.6 | 0.00 | 0.99 | 0.00 | 94 | 1009.7 |
| 20260510060736 | 7 | 178 | 0.0 | 0.0 | 0.00 | 0.99 | 0.00 | 94 | 1009.4 |
| 20260510060231 | 7 | 178 | 0.0 | 1.6 | 0.00 | 0.99 | 0.00 | 94 | 1009.4 |
| 20260510055724 | 7 | 178 | 1.6 | 3.2 | 0.00 | 0.99 | 0.00 | 93 | 1009.3 |
| 20260510055219 | 6 | 178 | 0.0 | 3.2 | 0.00 | 0.99 | 0.00 | 93 | 1009.4 |
| 20260510054713 | 6 | 178 | 0.0 | 1.6 | 0.00 | 0.99 | 0.00 | 93 | 1009.3 |
| 20260510054206 | 6 | 178 | 0.0 | 0.0 | 0.00 | 0.99 | 0.00 | 93 | 1009.2 |
| 20260510053700 | 6 | 178 | 0.0 | 0.0 | 0.00 | 0.99 | 0.00 | 93 | 1009.4 |
| 20260510053155 | 6 | 178 | 0.0 | 0.0 | 0.00 | 0.99 | 0.00 | 93 | 1009.4 |
| 20260510052648 | 6 | 178 | 0.0 | 0.0 | 0.00 | 0.99 | 0.00 | 93 | 1009.5 |
| 20260510052143 | 6 | 178 | 0.0 | 0.0 | 0.00 | 0.99 | 0.00 | 93 | 1009.3 |
| 20260510051636 | 6 | 178 | 0.0 | 1.6 | 0.00 | 0.99 | 0.00 | 93 | 1009.3 |
| 20260510051131 | 6 | 178 | 1.6 | 3.2 | 0.00 | 0.99 | 0.00 | 93 | 1009.4 |
| 20260510050629 | 7 | 178 | 1.6 | 3.2 | 0.00 | 0.99 | 0.00 | 93 | 1009.5 |
| 20260510050129 | 7 | 178 | 0.0 | 1.6 | 0.00 | 0.99 | 0.00 | 93 | 1009.5 |
| 20260510045629 | 7 | 178 | 0.0 | 1.6 | 0.00 | 0.99 | 0.00 | 93 | 1009.5 |
| 20260510045127 | 7 | 178 | 0.0 | 1.6 | 0.00 | 0.99 | 0.00 | 93 | 1009.7 |
| 20260510044627 | 7 | 178 | 0.0 | 1.6 | 0.00 | 0.99 | 0.00 | 93 | 1009.7 |
| 20260510044128 | 7 | 178 | 0.0 | 3.2 | 0.00 | 0.99 | 0.00 | 93 | 1009.6 |
| 20260510043627 | 7 | 178 | 0.0 | 3.2 | 0.00 | 0.99 | 0.00 | 93 | 1009.6 |
| 20260510043127 | 7 | 178 | 0.0 | 0.0 | 0.00 | 0.99 | 0.00 | 93 | 1009.6 |
| 20260510042629 | 7 | 178 | 0.0 | 0.0 | 0.00 | 0.99 | 0.00 | 93 | 1009.6 |
| 20260510042124 | 7 | 178 | 0.0 | 0.0 | 0.00 | 0.99 | 0.00 | 93 | 1009.7 |
| 20260510041623 | 7 | 178 | 0.0 | 0.0 | 0.00 | 0.99 | 0.00 | 93 | 1009.8 |
| 20260510041125 | 7 | 178 | 0.0 | 0.0 | 0.00 | 0.99 | 0.00 | 93 | 1009.7 |
| 20260510040623 | 7 | 178 | 0.0 | 0.0 | 0.00 | 0.99 | 0.00 | 93 | 1009.7 |
| 20260510040125 | 7 | 178 | 0.0 | 3.2 | 0.00 | 0.99 | 0.00 | 93 | 1009.6 |
| 20260510035623 | 7 | 178 | 0.0 | 3.2 | 0.00 | 0.99 | 0.99 | 92 | 1009.6 |
| 20260510035124 | 7 | 178 | 0.0 | 1.6 | 0.00 | 0.99 | 0.99 | 92 | 1009.5 |
| 20260510034623 | 7 | 178 | 0.0 | 0.0 | 0.00 | 0.99 | 0.99 | 92 | 1009.4 |
| 20260510034125 | 7 | 178 | 0.0 | 0.0 | 0.00 | 0.99 | 0.99 | 92 | 1009.5 |
| 20260510033854 | 7 | 178 | 0.0 | 0.0 | 0.00 | 0.99 | 0.99 | 92 | 1009.5 |
| 20260510033122 | 7 | 178 | 0.0 | 0.0 | 0.00 | 0.99 | 0.99 | 92 | 1009.4 |
| 20260510032622 | 7 | 178 | 0.0 | 0.0 | 0.00 | 0.99 | 0.99 | 92 | 1009.3 |
| 20260510032119 | 7 | 178 | 0.0 | 0.0 | 0.00 | 0.99 | 0.99 | 92 | 1009.3 |
| 20260510031617 | 7 | 178 | 0.0 | 0.0 | 0.00 | 0.99 | 0.99 | 92 | 1009.4 |
| 20260510031117 | 7 | 178 | 0.0 | 0.0 | 0.00 | 0.99 | 0.99 | 93 | 1009.3 |
| 20260510030621 | 7 | 178 | 0.0 | 0.0 | 0.00 | 0.99 | 0.99 | 92 | 1009.3 |
| 20260510030116 | 7 | 178 | 0.0 | 0.0 | 0.00 | 0.99 | 0.99 | 92 | 1009.3 |
| 20260510025614 | 7 | 178 | 0.0 | 0.0 | 0.00 | 0.99 | 0.99 | 93 | 1009.2 |
| 20260510025113 | 8 | 178 | 0.0 | 0.0 | 0.00 | 0.99 | 0.99 | 93 | 1009.2 |
| 20260510024614 | 8 | 178 | 0.0 | 0.0 | 0.00 | 0.99 | 0.99 | 93 | 1009.3 |
| 20260510024112 | 8 | 178 | 0.0 | 0.0 | 0.00 | 0.99 | 0.99 | 93 | 1009.2 |
| 20260510023844 | 8 | 178 | 0.0 | 1.6 | 0.00 | 0.99 | 0.99 | 92 | 1009.1 |
| 20260510023344 | 8 | 178 | 0.0 | 3.2 | 0.00 | 0.99 | 0.99 | 92 | 1009.3 |
| 20260510022841 | 8 | 178 | 0.0 | 3.2 | 0.00 | 0.99 | 0.99 | 92 | 1009.2 |
| 20260510022109 | 8 | 178 | 0.0 | 3.2 | 0.00 | 0.99 | 0.99 | 93 | 1009.2 |
| 20260510021610 | 8 | 178 | 0.0 | 0.0 | 0.00 | 0.99 | 0.99 | 93 | 1009.3 |
| 20260510021109 | 8 | 178 | 0.0 | 0.0 | 0.00 | 0.99 | 0.99 | 93 | 1009.3 |
| 20260510020601 | 8 | 178 | 0.0 | 0.0 | 0.00 | 0.99 | 0.99 | 92 | 1009.4 |
| 20260510020056 | 8 | 178 | 0.0 | 0.0 | 0.00 | 0.99 | 0.99 | 92 | 1009.4 |
| 20260510015549 | 8 | 178 | 0.0 | 0.0 | 0.00 | 0.99 | 0.99 | 92 | 1009.4 |
| 20260510015044 | 8 | 178 | 0.0 | 0.0 | 0.00 | 0.99 | 0.99 | 92 | 1009.3 |
| 20260510014537 | 8 | 178 | 0.0 | 0.0 | 0.00 | 0.99 | 0.99 | 92 | 1009.3 |
| 20260510014303 | 8 | 178 | 0.0 | 0.0 | 0.00 | 0.99 | 0.99 | 92 | 1009.2 |
| 20260510013526 | 8 | 178 | 0.0 | 0.0 | 0.00 | 0.99 | 0.99 | 92 | 1009.3 |
| 20260510013020 | 8 | 178 | 0.0 | 0.0 | 0.00 | 0.99 | 0.99 | 92 | 1009.2 |
| 20260510012514 | 8 | 178 | 0.0 | 0.0 | 0.00 | 0.99 | 0.99 | 92 | 1009.3 |
| 20260510012008 | 8 | 178 | 0.0 | 0.0 | 0.00 | 0.99 | 0.99 | 92 | 1009.3 |
| 20260510011502 | 8 | 178 | 0.0 | 0.0 | 0.00 | 0.99 | 0.99 | 93 | 1009.4 |
| 20260510010956 | 9 | 178 | 0.0 | 0.0 | 0.00 | 0.99 | 0.99 | 92 | 1009.2 |
| 20260510010449 | 9 | 178 | 0.0 | 0.0 | 0.00 | 0.99 | 0.99 | 92 | 1009.2 |
| 20260510005944 | 9 | 178 | 0.0 | 0.0 | 0.00 | 0.99 | 0.99 | 93 | 1009.1 |
| 20260510005710 | 9 | 178 | 0.0 | 0.0 | 0.00 | 0.99 | 0.99 | 92 | 1009.0 |
| 20260510005433 | 10 | 178 | 0.0 | 0.0 | 0.00 | 0.99 | 0.99 | 93 | 1008.8 |
| 20260510004426 | 10 | 178 | 0.0 | 1.6 | 0.00 | 0.99 | 0.99 | 93 | 1008.8 |
| 20260510003920 | 10 | 178 | 0.0 | 3.2 | 0.00 | 0.99 | 0.99 | 93 | 1008.7 |
| 20260510003413 | 10 | 178 | 0.0 | 3.2 | 0.00 | 0.99 | 0.99 | 93 | 1008.6 |
| 20260510002908 | 10 | 178 | 1.6 | 3.2 | 0.00 | 0.99 | 0.99 | 93 | 1008.5 |
| 20260510002401 | 10 | 178 | 1.6 | 3.2 | 0.00 | 0.99 | 0.99 | 93 | 1008.5 |
| 20260510001856 | 10 | 182 | 1.6 | 4.8 | 0.00 | 0.99 | 0.99 | 93 | 1008.5 |
| 20260510001851 | 11 | 182 | 3.2 | 6.4 | 0.00 | 0.99 | 0.99 | 93 | 1008.6 |
| 20260510000843 | 11 | 180 | 3.2 | 6.4 | 0.00 | 0.99 | 0.99 | 93 | 1008.7 |
| 20260510000337 | 11 | 202 | 3.2 | 6.4 | 0.00 | 0.99 | 0.99 | 93 | 1008.8 |
| 20260509235832 | 11 | 182 | 3.2 | 6.4 | 0.00 | 0.99 | 0.99 | 93 | 1008.8 |
| 20260509235325 | 11 | 196 | 1.6 | 6.4 | 0.00 | 0.99 | 0.99 | 94 | 1008.7 |
| 20260509234820 | 11 | 171 | 1.6 | 8.0 | 0.00 | 0.99 | 0.99 | 94 | 1008.8 |
| 20260509234314 | 11 | 172 | 1.6 | 8.0 | 0.00 | 0.99 | 0.99 | 94 | 1008.6 |
| 20260509233807 | 11 | 166 | 3.2 | 8.0 | 0.00 | 0.99 | 0.99 | 94 | 1008.5 |
| 20260509233302 | 11 | 143 | 3.2 | 8.0 | 0.00 | 0.99 | 0.99 | 94 | 1008.6 |
| 20260509232756 | 11 | 180 | 3.2 | 8.0 | 0.00 | 0.99 | 0.99 | 94 | 1008.6 |
| 20260509232751 | 11 | 155 | 1.6 | 6.4 | 0.00 | 0.99 | 0.99 | 94 | 1008.5 |
| 20260509232015 | 11 | 145 | 3.2 | 9.7 | 0.00 | 0.99 | 0.99 | 94 | 1008.4 |
| 20260509231237 | 11 | 149 | 3.2 | 9.7 | 0.00 | 0.99 | 0.99 | 94 | 1008.4 |
| 20260509230732 | 11 | 173 | 1.6 | 6.4 | 0.00 | 0.99 | 0.99 | 94 | 1008.4 |
| 20260509230225 | 11 | 175 | 1.6 | 6.4 | 0.00 | 0.99 | 0.99 | 94 | 1008.4 |
| 20260509225719 | 11 | 187 | 1.6 | 4.8 | 0.00 | 0.99 | 0.99 | 94 | 1008.5 |
| 20260509225217 | 11 | 107 | 3.2 | 11.3 | 0.00 | 0.99 | 0.99 | 94 | 1008.5 |
| 20260509224716 | 11 | 146 | 4.8 | 12.9 | 0.00 | 0.99 | 0.99 | 94 | 1008.5 |
| 20260509224215 | 11 | 195 | 6.4 | 12.9 | 0.00 | 0.99 | 0.99 | 94 | 1008.4 |
| 20260509223716 | 11 | 175 | 6.4 | 14.5 | 0.00 | 0.99 | 0.99 | 94 | 1008.5 |
| 20260509223444 | 11 | 185 | 6.4 | 14.5 | 0.00 | 0.99 | 0.99 | 93 | 1008.6 |
| 20260509222709 | 11 | 154 | 4.8 | 11.3 | 0.00 | 0.99 | 0.99 | 93 | 1008.7 |
| 20260509222209 | 11 | 112 | 3.2 | 9.7 | 0.00 | 0.99 | 0.99 | 94 | 1008.7 |
| 20260509221708 | 11 | 171 | 4.8 | 9.7 | 0.00 | 0.99 | 0.99 | 94 | 1008.7 |
| 20260509221206 | 11 | 119 | 4.8 | 9.7 | 0.03 | 0.99 | 0.99 | 93 | 1008.8 |
| 20260509220707 | 11 | 178 | 3.2 | 9.7 | 0.05 | 0.99 | 0.99 | 94 | 1008.7 |
| 20260509220207 | 11 | 180 | 3.2 | 9.7 | 0.08 | 0.99 | 0.99 | 94 | 1008.6 |
| 20260509215939 | 11 | 169 | 4.8 | 9.7 | 0.10 | 0.99 | 0.99 | 93 | 1008.6 |
| 20260509215206 | 11 | 154 | 4.8 | 9.7 | 0.13 | 0.99 | 0.99 | 93 | 1008.8 |
| 20260509214708 | 12 | 210 | 4.8 | 12.9 | 0.15 | 0.99 | 0.99 | 94 | 1008.8 |
| 20260509214433 | 12 | 93 | 3.2 | 12.9 | 0.18 | 0.99 | 0.99 | 93 | 1008.7 |
| 20260509213703 | 12 | 160 | 1.6 | 6.4 | 0.20 | 0.99 | 0.99 | 94 | 1008.6 |
| 20260509213203 | 11 | 328 | 0.0 | 3.2 | 0.20 | 0.99 | 0.99 | 94 | 1008.6 |
| 20260509212703 | 11 | 328 | 0.0 | 3.2 | 0.23 | 0.99 | 0.99 | 94 | 1008.6 |
| 20260509212434 | 11 | 328 | 0.0 | 3.2 | 0.25 | 0.99 | 0.99 | 94 | 1008.7 |
| 20260509211703 | 11 | 328 | 1.6 | 4.8 | 0.25 | 0.99 | 0.99 | 94 | 1008.7 |
| 20260509211202 | 11 | 328 | 3.2 | 11.3 | 0.25 | 0.97 | 0.97 | 94 | 1008.5 |
| 20260509210704 | 11 | 327 | 3.2 | 11.3 | 0.28 | 0.94 | 0.94 | 94 | 1008.5 |
| 20260509210203 | 11 | 313 | 3.2 | 9.7 | 0.28 | 0.91 | 0.91 | 94 | 1008.6 |
| 20260509205659 | 11 | 313 | 1.6 | 4.8 | 0.30 | 0.89 | 0.89 | 94 | 1008.7 |
| 20260509205158 | 11 | 266 | 1.6 | 4.8 | 0.28 | 0.86 | 0.86 | 94 | 1008.8 |
| 20260509204656 | 11 | 293 | 3.2 | 11.3 | 0.28 | 0.84 | 0.84 | 94 | 1008.8 |
| 20260509204157 | 11 | 288 | 3.2 | 11.3 | 0.28 | 0.81 | 0.81 | 94 | 1008.7 |
| 20260509203655 | 11 | 290 | 3.2 | 6.4 | 0.28 | 0.79 | 0.79 | 94 | 1008.7 |
| 20260509203152 | 11 | 338 | 1.6 | 6.4 | 0.28 | 0.79 | 0.79 | 93 | 1008.6 |
| 20260509202924 | 11 | 344 | 3.2 | 12.9 | 0.28 | 0.76 | 0.76 | 94 | 1008.7 |
| 20260509202153 | 11 | 320 | 3.2 | 12.9 | 0.28 | 0.74 | 0.74 | 94 | 1008.7 |
| 20260509201923 | 11 | 341 | 3.2 | 11.3 | 0.30 | 0.74 | 0.74 | 93 | 1008.8 |
| 20260509201153 | 11 | 301 | 3.2 | 11.3 | 0.33 | 0.71 | 0.71 | 93 | 1008.8 |
| 20260509200655 | 11 | 316 | 4.8 | 12.9 | 0.30 | 0.66 | 0.66 | 93 | 1008.9 |
| 20260509200154 | 11 | 315 | 6.4 | 19.3 | 0.30 | 0.64 | 0.64 | 93 | 1008.9 |
| 20260509195652 | 11 | 289 | 8.0 | 19.3 | 0.28 | 0.58 | 0.61 | 93 | 1009.1 |
| 20260509195150 | 11 | 329 | 6.4 | 16.1 | 0.33 | 0.58 | 0.58 | 93 | 1009.1 |
| 20260509194651 | 11 | 319 | 6.4 | 16.1 | 0.33 | 0.56 | 0.56 | 93 | 1009.3 |
| 20260509194145 | 11 | 333 | 4.8 | 16.1 | 0.33 | 0.53 | 0.53 | 93 | 1009.4 |
| 20260509193639 | 11 | 295 | 4.8 | 16.1 | 0.33 | 0.51 | 0.51 | 93 | 1009.5 |
| 20260509193132 | 11 | 281 | 4.8 | 17.7 | 0.36 | 0.51 | 0.51 | 93 | 1009.6 |
| 20260509192626 | 11 | 299 | 3.2 | 17.7 | 0.33 | 0.48 | 0.48 | 93 | 1009.4 |
| 20260509192121 | 11 | 298 | 4.8 | 12.9 | 0.30 | 0.46 | 0.46 | 93 | 1009.5 |
| 20260509191614 | 11 | 355 | 4.8 | 22.5 | 0.30 | 0.43 | 0.43 | 93 | 1009.5 |
| 20260509191109 | 11 | 355 | 4.8 | 22.5 | 0.25 | 0.38 | 0.38 | 93 | 1009.5 |
| 20260509190602 | 11 | 294 | 6.4 | 14.5 | 0.25 | 0.36 | 0.36 | 93 | 1009.5 |
| 20260509190057 | 11 | 321 | 6.4 | 14.5 | 0.25 | 0.33 | 0.33 | 93 | 1009.7 |
| 20260509185551 | 11 | 305 | 4.8 | 12.9 | 0.23 | 0.28 | 0.30 | 93 | 1009.6 |
| 20260509185045 | 11 | 274 | 4.8 | 12.9 | 0.23 | 0.25 | 0.25 | 92 | 1009.7 |
| 20260509184809 | 11 | 272 | 4.8 | 12.9 | 0.23 | 0.23 | 0.23 | 92 | 1009.7 |
| 20260509184033 | 11 | 286 | 3.2 | 9.7 | 0.20 | 0.20 | 0.20 | 92 | 1009.7 |
| 20260509183527 | 11 | 275 | 3.2 | 8.0 | 0.18 | 0.18 | 0.18 | 92 | 1009.5 |
| 20260509183020 | 11 | 311 | 3.2 | 9.7 | 0.15 | 0.15 | 0.15 | 92 | 1009.3 |
| 20260509182515 | 11 | 327 | 4.8 | 11.3 | 0.15 | 0.15 | 0.15 | 92 | 1009.3 |
| 20260509182009 | 11 | 311 | 4.8 | 16.1 | 0.15 | 0.15 | 0.15 | 91 | 1009.4 |
| 20260509181503 | 11 | 332 | 4.8 | 16.1 | 0.13 | 0.13 | 0.13 | 91 | 1009.7 |
| 20260509180956 | 12 | 280 | 4.8 | 16.1 | 0.13 | 0.13 | 0.13 | 91 | 1009.8 |
| 20260509180721 | 12 | 355 | 4.8 | 14.5 | 0.10 | 0.10 | 0.10 | 90 | 1009.7 |
| 20260509175945 | 12 | 302 | 4.8 | 14.5 | 0.08 | 0.08 | 0.08 | 89 | 1010.0 |
| 20260509175439 | 12 | 304 | 4.8 | 14.5 | 0.05 | 0.05 | 0.05 | 88 | 1010.2 |
| 20260509174933 | 12 | 264 | 4.8 | 19.3 | 0.03 | 0.03 | 0.03 | 88 | 1010.2 |
| 20260509174427 | 13 | 314 | 4.8 | 19.3 | 0.00 | 0.00 | 0.00 | 87 | 1010.2 |
| 20260509173921 | 13 | 284 | 6.4 | 19.3 | 0.00 | 0.00 | 0.00 | 85 | 1010.2 |
| 20260509173646 | 13 | 231 | 8.0 | 19.3 | 0.00 | 0.00 | 0.00 | 82 | 1010.2 |
| 20260509173141 | 13 | 273 | 6.4 | 19.3 | 0.00 | 0.00 | 0.00 | 80 | 1010.1 |
| 20260509172402 | 14 | 248 | 6.4 | 17.7 | 0.00 | 0.00 | 0.00 | 81 | 1010.0 |
| 20260509171856 | 14 | 262 | 6.4 | 19.3 | 0.00 | 0.00 | 0.00 | 81 | 1009.9 |
| 20260509171623 | 15 | 288 | 6.4 | 19.3 | 0.00 | 0.00 | 0.00 | 80 | 1009.8 |
| 20260509170844 | 14 | 281 | 4.8 | 19.3 | 0.00 | 0.00 | 0.00 | 85 | 1009.7 |
| 20260509170609 | 14 | 281 | 3.2 | 14.5 | 0.00 | 0.00 | 0.00 | 84 | 1009.7 |
| 20260509165327 | 15 | 275 | 4.8 | 17.7 | 0.00 | 0.00 | 0.00 | 78 | 1009.8 |
| 20260509164820 | 15 | 254 | 4.8 | 17.7 | 0.00 | 0.00 | 0.00 | 76 | 1009.8 |
| 20260509164314 | 15 | 273 | 4.8 | 17.7 | 0.00 | 0.00 | 0.00 | 76 | 1009.8 |
| 20260509163810 | 15 | 283 | 3.2 | 12.9 | 0.00 | 0.00 | 0.00 | 78 | 1009.8 |
| 20260509163310 | 15 | 233 | 6.4 | 17.7 | 0.00 | 0.00 | 0.00 | 75 | 1009.8 |
| 20260509162809 | 15 | 227 | 6.4 | 17.7 | 0.00 | 0.00 | 0.00 | 73 | 1009.8 |
| 20260509162310 | 15 | 205 | 6.4 | 17.7 | 0.00 | 0.00 | 0.00 | 74 | 1010.0 |
| 20260509162042 | 15 | 211 | 4.8 | 16.1 | 0.00 | 0.00 | 0.00 | 74 | 1010.1 |
| 20260509161313 | 15 | 213 | 4.8 | 16.1 | 0.00 | 0.00 | 0.00 | 75 | 1010.1 |
| 20260509161309 | 15 | 217 | 4.8 | 14.5 | 0.00 | 0.00 | 0.00 | 76 | 1010.0 |
| 20260509160306 | 15 | 240 | 4.8 | 16.1 | 0.00 | 0.00 | 0.00 | 73 | 1010.2 |
| 20260509155805 | 15 | 246 | 3.2 | 12.9 | 0.00 | 0.00 | 0.00 | 75 | 1010.1 |
| 20260509155536 | 15 | 288 | 4.8 | 12.9 | 0.00 | 0.00 | 0.00 | 75 | 1009.9 |
| 20260509154807 | 15 | 263 | 4.8 | 16.1 | 0.00 | 0.00 | 0.00 | 77 | 1010.2 |
| 20260509154536 | 15 | 283 | 4.8 | 19.3 | 0.00 | 0.00 | 0.00 | 78 | 1010.3 |
| 20260509154037 | 15 | 13 | 6.4 | 22.5 | 0.00 | 0.00 | 0.00 | 77 | 1010.5 |
| 20260509153305 | 15 | 245 | 6.4 | 22.5 | 0.00 | 0.00 | 0.00 | 77 | 1010.2 |
| 20260509152804 | 15 | 240 | 6.4 | 22.5 | 0.00 | 0.00 | 0.00 | 76 | 1010.4 |
| 20260509152306 | 15 | 215 | 6.4 | 22.5 | 0.00 | 0.00 | 0.00 | 73 | 1010.4 |
| 20260509151803 | 15 | 220 | 6.4 | 16.1 | 0.00 | 0.00 | 0.00 | 77 | 1010.4 |
| 20260509151538 | 15 | 316 | 6.4 | 16.1 | 0.00 | 0.00 | 0.00 | 78 | 1010.4 |
| 20260509150801 | 15 | 239 | 4.8 | 12.9 | 0.00 | 0.00 | 0.00 | 80 | 1010.3 |
| 20260509150259 | 15 | 190 | 4.8 | 16.1 | 0.00 | 0.00 | 0.00 | 79 | 1010.3 |
| 20260509145800 | 15 | 250 | 6.4 | 16.1 | 0.00 | 0.00 | 0.00 | 79 | 1010.4 |
| 20260509145301 | 15 | 256 | 6.4 | 16.1 | 0.00 | 0.00 | 0.00 | 78 | 1010.4 |
| 20260509144800 | 15 | 261 | 6.4 | 19.3 | 0.00 | 0.00 | 0.00 | 81 | 1010.5 |
| 20260509144300 | 14 | 203 | 6.4 | 19.3 | 0.00 | 0.00 | 0.00 | 81 | 1010.5 |
| 20260509143801 | 14 | 238 | 6.4 | 17.7 | 0.00 | 0.00 | 0.00 | 82 | 1010.3 |
| 20260509143304 | 14 | 300 | 4.8 | 14.5 | 0.00 | 0.00 | 0.00 | 84 | 1010.2 |
| 20260509143259 | 14 | 223 | 3.2 | 11.3 | 0.00 | 0.00 | 0.00 | 81 | 1010.4 |